createdAt,value
2023-04-13T00:01:28.906Z,35.72
2023-04-13T00:04:03.189Z,37.60
2023-04-13T00:06:31.945Z,35.72
2023-04-13T00:09:00.941Z,37.80
2023-04-13T00:11:29.422Z,36.58
2023-04-13T00:13:58.993Z,36.20
2023-04-13T00:16:31.415Z,36.28
2023-04-13T00:19:00.237Z,33.20
2023-04-13T00:21:28.348Z,32.70
2023-04-13T00:23:57.144Z,34.95
2023-04-13T00:26:25.798Z,37.38
2023-04-13T00:28:54.226Z,40.00
2023-04-13T00:31:23.309Z,38.88
2023-04-13T00:33:53.313Z,40.17
2023-04-13T00:36:24.587Z,38.17
2023-04-13T00:38:54.490Z,37.00
2023-04-13T00:41:22.810Z,36.97
2023-04-13T00:43:52.430Z,37.58
2023-04-13T00:46:22.389Z,33.85
2023-04-13T00:48:52.854Z,36.70
2023-04-13T00:51:21.520Z,36.70
2023-04-13T00:53:51.431Z,36.58
2023-04-13T00:56:22.920Z,36.25
2023-04-13T00:58:51.729Z,36.05
2023-04-13T01:01:19.893Z,34.38
2023-04-13T01:03:49.661Z,33.45
2023-04-13T01:06:26.162Z,35.58
2023-04-13T01:08:59.490Z,34.95
2023-04-13T01:11:32.039Z,33.40
2023-04-13T01:14:04.466Z,33.08
2023-04-13T01:16:37.428Z,32.75
2023-04-13T01:19:06.505Z,32.33
2023-04-13T01:21:36.223Z,33.10
2023-04-13T01:24:20.028Z,31.58
2023-04-13T01:26:54.781Z,33.35
2023-04-13T01:29:25.195Z,34.20
2023-04-13T01:31:54.984Z,34.78
2023-04-13T01:34:24.294Z,32.97
2023-04-13T01:36:52.459Z,32.10
2023-04-13T01:39:21.315Z,32.13
2023-04-13T01:41:49.401Z,31.35
2023-04-13T01:44:17.946Z,34.55
2023-04-13T01:46:49.559Z,32.85
2023-04-13T01:49:19.686Z,33.20
2023-04-13T01:51:48.564Z,33.67
2023-04-13T01:54:20.042Z,33.28
2023-04-13T01:56:48.349Z,31.70
2023-04-13T01:59:17.231Z,31.83
2023-04-13T02:01:46.884Z,31.52
2023-04-13T02:04:15.576Z,30.42
2023-04-13T02:06:43.776Z,30.40
2023-04-13T02:09:12.691Z,30.35
2023-04-13T02:11:41.045Z,31.88
2023-04-13T02:14:09.526Z,33.72
2023-04-13T02:16:37.699Z,33.80
2023-04-13T02:19:07.566Z,32.22
2023-04-13T02:21:36.240Z,31.25
2023-04-13T02:24:05.816Z,33.13
2023-04-13T02:26:34.102Z,36.13
2023-04-13T02:29:02.650Z,35.17
2023-04-13T02:31:31.960Z,35.80
2023-04-13T02:34:00.798Z,34.22
2023-04-13T02:36:30.592Z,33.35
2023-04-13T02:38:58.990Z,35.10
2023-04-13T02:41:27.311Z,34.28
2023-04-13T02:43:55.745Z,32.88
2023-04-13T02:46:24.300Z,35.65
2023-04-13T02:48:52.897Z,33.45
2023-04-13T02:51:21.101Z,38.78
2023-04-13T02:53:52.446Z,40.63
2023-04-13T02:56:22.543Z,42.67
2023-04-13T02:58:51.682Z,42.65
2023-04-13T03:01:19.929Z,41.65
2023-04-13T03:03:48.354Z,49.80
2023-04-13T03:06:16.524Z,41.95
2023-04-13T03:08:45.065Z,39.80
2023-04-13T03:11:14.630Z,38.72
2023-04-13T03:13:43.129Z,37.47
2023-04-13T03:16:11.958Z,42.65
2023-04-13T03:18:40.360Z,39.75
2023-04-13T03:21:09.025Z,40.20
2023-04-13T03:23:37.623Z,39.40
2023-04-13T03:26:06.275Z,38.63
2023-04-13T03:28:36.379Z,37.78
2023-04-13T03:31:04.895Z,37.70
2023-04-13T03:33:33.422Z,37.42
2023-04-13T03:36:01.690Z,36.28
2023-04-13T03:38:30.070Z,35.78
2023-04-13T03:40:58.166Z,38.67
2023-04-13T03:43:27.206Z,36.00
2023-04-13T03:45:56.850Z,34.55
2023-04-13T03:48:25.216Z,34.65
2023-04-13T03:50:53.508Z,34.15
2023-04-13T03:53:22.276Z,34.60
2023-04-13T03:55:50.389Z,33.92
2023-04-13T03:58:18.995Z,35.00
2023-04-13T04:00:47.109Z,31.52
2023-04-13T04:03:17.519Z,32.30
2023-04-13T04:05:46.402Z,31.73
2023-04-13T04:08:14.961Z,34.30
2023-04-13T04:10:43.169Z,34.25
2023-04-13T04:13:11.621Z,35.22
2023-04-13T04:15:39.721Z,35.55
2023-04-13T04:18:08.656Z,37.25
2023-04-13T04:20:38.338Z,35.45
2023-04-13T04:23:11.023Z,34.75
2023-04-13T04:25:40.573Z,34.45
2023-04-13T04:28:09.152Z,32.28
2023-04-13T04:30:37.270Z,34.53
2023-04-13T04:33:05.762Z,30.30
2023-04-13T04:35:43.211Z,32.25
2023-04-13T04:38:13.245Z,26.80
2023-04-13T04:40:45.228Z,28.38
2023-04-13T04:43:14.694Z,24.33
2023-04-13T04:45:44.023Z,24.92
2023-04-13T04:48:13.578Z,24.52
2023-04-13T04:50:44.884Z,23.80
2023-04-13T04:53:14.798Z,20.13
2023-04-13T04:55:43.308Z,20.75
2023-04-13T04:58:11.697Z,18.50
2023-04-13T05:00:40.190Z,20.02
2023-04-13T05:03:08.940Z,19.85
2023-04-13T05:05:37.176Z,23.65
2023-04-13T05:08:06.232Z,22.77
2023-04-13T05:10:35.947Z,22.88
2023-04-13T05:13:04.338Z,23.35
2023-04-13T05:15:32.636Z,22.13
2023-04-13T05:18:01.181Z,22.90
2023-04-13T05:20:29.764Z,21.13
2023-04-13T05:22:59.279Z,21.35
2023-04-13T05:25:28.946Z,22.10
2023-04-13T05:27:58.669Z,23.10
2023-04-13T05:30:26.774Z,25.60
2023-04-13T05:32:55.222Z,25.42
2023-04-13T05:35:24.139Z,27.75
2023-04-13T05:37:53.542Z,28.77
2023-04-13T05:40:22.971Z,28.90
2023-04-13T05:42:51.430Z,31.48
2023-04-13T05:45:21.749Z,28.13
2023-04-13T05:47:50.744Z,25.30
2023-04-13T05:50:18.939Z,17.92
2023-04-13T05:52:47.418Z,19.40
2023-04-13T05:55:16.352Z,20.90
2023-04-13T05:57:44.721Z,23.20
2023-04-13T06:00:14.113Z,25.83
2023-04-13T06:02:44.173Z,22.92
2023-04-13T06:05:15.037Z,18.55
2023-04-13T06:07:44.931Z,15.00
2023-04-13T06:10:14.203Z,13.50
2023-04-13T06:12:42.819Z,13.85
2023-04-13T06:15:12.058Z,12.10
2023-04-13T06:17:40.447Z,13.88
2023-04-13T06:20:11.333Z,13.40
2023-04-13T06:22:40.231Z,13.77
2023-04-13T06:25:10.868Z,13.10
2023-04-13T06:27:39.336Z,13.10
2023-04-13T06:30:09.304Z,11.93
2023-04-13T06:32:37.859Z,11.98
2023-04-13T06:35:06.729Z,10.75
2023-04-13T06:37:39.013Z,10.82
2023-04-13T06:40:10.230Z,10.35
2023-04-13T06:42:39.804Z,10.95
2023-04-13T06:45:09.161Z,9.90
2023-04-13T06:47:40.920Z,9.95
2023-04-13T06:50:14.224Z,10.80
2023-04-13T06:52:46.099Z,10.15
2023-04-13T06:55:15.785Z,11.77
2023-04-13T06:57:44.444Z,12.30
2023-04-13T07:00:29.058Z,10.68
2023-04-13T07:02:59.236Z,12.13
2023-04-13T07:05:27.484Z,10.57
2023-04-13T07:07:57.565Z,10.40
2023-04-13T07:10:25.955Z,11.65
2023-04-13T07:12:54.400Z,10.70
2023-04-13T07:15:22.686Z,10.65
2023-04-13T07:17:52.663Z,9.73
2023-04-13T07:20:21.150Z,10.88
2023-04-13T07:22:49.551Z,10.73
2023-04-13T07:25:19.490Z,9.10
2023-04-13T07:27:47.988Z,10.43
2023-04-13T07:30:16.483Z,12.13
2023-04-13T07:32:45.091Z,11.15
2023-04-13T07:35:13.410Z,10.82
2023-04-13T07:37:42.246Z,9.63
2023-04-13T07:40:11.661Z,9.48
2023-04-13T07:42:41.478Z,8.63
2023-04-13T07:45:11.283Z,7.38
2023-04-13T07:47:39.996Z,7.50
2023-04-13T07:50:09.832Z,6.85
2023-04-13T07:52:38.200Z,6.80
2023-04-13T07:55:08.910Z,5.53
2023-04-13T07:57:37.516Z,6.28
2023-04-13T08:00:08.511Z,5.88
2023-04-13T08:02:37.544Z,5.97
2023-04-13T08:05:07.205Z,6.22
2023-04-13T08:07:36.220Z,6.40
2023-04-13T08:10:04.571Z,6.32
2023-04-13T08:12:32.942Z,7.68
2023-04-13T08:15:01.396Z,6.93
2023-04-13T08:17:31.565Z,7.60
2023-04-13T08:19:59.733Z,6.53
2023-04-13T08:22:28.091Z,7.00
2023-04-13T08:24:56.540Z,5.80
2023-04-13T08:27:25.498Z,5.97
2023-04-13T08:29:56.696Z,6.65
2023-04-13T08:32:25.279Z,5.53
2023-04-13T08:34:55.795Z,2.85
2023-04-13T08:37:24.629Z,3.67
2023-04-13T08:39:56.630Z,2.65
2023-04-13T08:44:59.090Z,4.53
2023-04-13T08:47:29.101Z,4.40
2023-04-13T08:50:00.424Z,4.25
2023-04-13T08:52:29.637Z,4.68
2023-04-13T08:54:59.268Z,4.50
2023-04-13T08:57:28.711Z,4.55
2023-04-13T08:59:58.607Z,3.85
2023-04-13T09:02:30.931Z,3.55
2023-04-13T09:05:03.244Z,3.75
2023-04-13T09:07:34.905Z,3.70
2023-04-13T09:10:05.867Z,3.22
2023-04-13T09:12:34.837Z,3.60
2023-04-13T09:15:03.980Z,3.13
2023-04-13T09:17:33.911Z,3.17
2023-04-13T09:20:16.120Z,2.90
2023-04-13T09:22:45.054Z,2.40
2023-04-13T09:25:27.274Z,3.20
2023-04-13T09:27:57.063Z,3.10
2023-04-13T09:30:27.053Z,3.42
2023-04-13T09:33:05.999Z,2.70
2023-04-13T09:35:36.561Z,2.90
2023-04-13T09:38:06.129Z,2.10
2023-04-13T09:40:38.421Z,2.22
2023-04-13T09:43:08.092Z,2.22
2023-04-13T09:45:36.948Z,2.22
2023-04-13T09:48:06.982Z,2.40
2023-04-13T09:50:36.990Z,2.83
2023-04-13T09:53:06.544Z,2.60
2023-04-13T09:55:37.236Z,3.00
2023-04-13T09:58:12.599Z,2.60
2023-04-13T10:00:42.409Z,2.50
2023-04-13T10:03:12.300Z,2.35
2023-04-13T10:05:57.873Z,2.67
2023-04-13T10:13:33.297Z,3.90
2023-04-13T10:16:19.622Z,4.68
2023-04-13T10:18:57.809Z,4.65
2023-04-13T10:21:33.228Z,4.47
2023-04-13T10:24:02.169Z,4.82
2023-04-13T10:26:34.586Z,5.07
2023-04-13T10:29:03.912Z,5.45
2023-04-13T10:31:39.495Z,4.30
2023-04-13T10:34:08.250Z,4.55
2023-04-13T10:36:39.180Z,3.72
2023-04-13T10:39:08.273Z,4.77
2023-04-13T10:41:36.632Z,3.85
2023-04-13T10:44:06.342Z,4.30
2023-04-13T10:46:35.396Z,4.05
2023-04-13T10:49:05.289Z,3.40
2023-04-13T10:51:42.023Z,4.40
2023-04-13T10:54:11.488Z,3.63
2023-04-13T10:56:40.126Z,4.13
2023-04-13T10:59:08.662Z,4.05
2023-04-13T11:01:36.791Z,3.88
2023-04-13T11:04:09.875Z,4.18
2023-04-13T11:06:43.757Z,4.30
2023-04-13T11:09:15.190Z,3.30
2023-04-13T11:11:45.119Z,3.17
2023-04-13T11:14:22.086Z,2.95
2023-04-13T11:16:50.426Z,3.00
2023-04-13T11:19:19.003Z,3.13
2023-04-13T11:21:55.293Z,3.30
2023-04-13T11:24:33.859Z,3.65
2023-04-13T11:27:02.215Z,3.63
2023-04-13T11:29:30.977Z,3.58
2023-04-13T11:31:59.132Z,4.32
2023-04-13T11:34:28.778Z,4.20
2023-04-13T11:37:05.137Z,5.05
2023-04-13T11:39:36.417Z,4.82
2023-04-13T11:42:07.968Z,4.70
2023-04-13T11:47:06.027Z,4.85
2023-04-13T11:49:34.642Z,4.72
2023-04-13T11:52:04.403Z,4.18
2023-04-13T11:54:32.910Z,4.85
2023-04-13T11:57:02.277Z,4.53
2023-04-13T11:59:30.987Z,3.78
2023-04-13T12:02:03.187Z,4.03
2023-04-13T12:04:39.514Z,4.78
2023-04-13T12:07:13.968Z,4.15
2023-04-13T12:15:10.620Z,3.20
2023-04-13T12:17:49.414Z,3.25
2023-04-13T12:20:21.177Z,3.08
2023-04-13T12:22:54.822Z,3.17
2023-04-13T12:25:35.454Z,2.97
2023-04-13T12:28:05.621Z,3.47
2023-04-13T12:30:34.713Z,2.85
2023-04-13T12:33:03.416Z,3.08
2023-04-13T12:35:31.896Z,3.35
2023-04-13T12:38:01.674Z,3.50
2023-04-13T12:40:29.993Z,3.00
2023-04-13T12:42:58.271Z,2.35
2023-04-13T12:45:28.341Z,2.47
2023-04-13T12:47:56.503Z,2.70
2023-04-13T12:50:25.232Z,2.70
2023-04-13T12:52:53.314Z,2.60
2023-04-13T12:55:23.039Z,2.97
2023-04-13T12:57:51.373Z,2.38
2023-04-13T13:00:21.145Z,3.05
2023-04-13T13:02:56.454Z,2.78
2023-04-13T13:07:59.401Z,3.35
2023-04-13T13:10:30.226Z,3.75
2023-04-13T13:13:00.728Z,3.35
2023-04-13T13:15:29.340Z,3.10
2023-04-13T13:17:57.503Z,3.05
2023-04-13T13:20:26.065Z,3.58
2023-04-13T13:22:54.241Z,4.30
2023-04-13T13:25:22.832Z,3.70
2023-04-13T13:30:24.245Z,3.63
2023-04-13T13:32:52.402Z,3.97
2023-04-13T13:35:20.881Z,4.50
2023-04-13T13:37:48.997Z,3.90
2023-04-13T13:40:17.629Z,4.75
2023-04-13T13:42:51.943Z,3.78
2023-04-13T13:45:22.959Z,3.90
2023-04-13T13:47:54.969Z,4.10
2023-04-13T13:50:23.593Z,4.40
2023-04-13T13:53:03.117Z,4.60
2023-04-13T13:55:32.748Z,4.30
2023-04-13T13:58:01.119Z,4.70
2023-04-13T14:00:31.126Z,4.70
2023-04-13T14:02:59.435Z,4.00
2023-04-13T14:05:28.002Z,4.05
2023-04-13T14:07:56.116Z,3.28
2023-04-13T14:10:24.926Z,4.43
2023-04-13T14:12:54.537Z,3.47
2023-04-13T14:15:22.970Z,3.97
2023-04-13T14:18:08.487Z,3.28
2023-04-13T14:20:39.921Z,3.72
2023-04-13T14:23:09.483Z,4.07
2023-04-13T14:25:40.106Z,3.60
2023-04-13T14:28:09.014Z,3.70
2023-04-13T14:30:37.772Z,4.20
2023-04-13T14:33:07.781Z,5.15
2023-04-13T14:35:36.273Z,6.68
2023-04-13T14:38:06.868Z,7.18
2023-04-13T14:40:35.892Z,6.82
2023-04-13T14:43:04.064Z,7.30
2023-04-13T14:45:32.763Z,7.38
2023-04-13T14:48:01.296Z,6.63
2023-04-13T14:50:31.150Z,7.50
2023-04-13T14:52:59.568Z,7.35
2023-04-13T14:55:27.946Z,8.45
2023-04-13T14:57:58.243Z,7.43
2023-04-13T15:00:38.703Z,8.25
2023-04-13T15:03:08.162Z,7.75
2023-04-13T15:05:40.023Z,7.20
2023-04-13T15:08:11.338Z,7.60
2023-04-13T15:10:42.456Z,7.50
2023-04-13T15:13:10.725Z,8.43
2023-04-13T15:15:40.424Z,7.55
2023-04-13T15:18:09.432Z,7.72
2023-04-13T15:20:39.453Z,8.55
2023-04-13T15:23:07.777Z,8.43
2023-04-13T15:25:38.091Z,8.85
2023-04-13T15:28:06.466Z,7.82
2023-04-13T15:30:35.480Z,9.93
2023-04-13T15:33:04.344Z,9.65
2023-04-13T15:35:35.664Z,10.73
2023-04-13T15:38:06.098Z,9.90
2023-04-13T15:40:36.174Z,9.02
2023-04-13T15:43:04.659Z,11.00
2023-04-13T15:45:33.450Z,10.25
2023-04-13T15:48:02.692Z,9.55
2023-04-13T15:50:31.181Z,11.60
2023-04-13T15:52:59.678Z,10.65
2023-04-13T15:55:29.782Z,11.25
2023-04-13T15:57:57.922Z,12.25
2023-04-13T16:00:27.054Z,13.00
2023-04-13T16:02:55.476Z,12.73
2023-04-13T16:05:24.131Z,12.57
2023-04-13T16:07:52.576Z,13.02
2023-04-13T16:10:21.147Z,13.43
2023-04-13T16:12:50.702Z,13.95
2023-04-13T16:15:20.330Z,13.75
2023-04-13T16:17:49.154Z,13.93
2023-04-13T16:20:21.273Z,14.68
2023-04-13T16:22:53.182Z,16.13
2023-04-13T16:25:21.881Z,17.30
2023-04-13T16:27:52.488Z,17.52
2023-04-13T16:30:22.821Z,18.67
2023-04-13T16:32:51.251Z,16.73
2023-04-13T16:35:19.892Z,16.50
2023-04-13T16:37:48.122Z,16.88
2023-04-13T16:40:17.158Z,16.83
2023-04-13T16:42:45.993Z,18.48
2023-04-13T16:45:15.814Z,18.08
2023-04-13T16:47:44.355Z,18.33
2023-04-13T16:50:13.383Z,19.15
2023-04-13T16:52:42.001Z,19.63
2023-04-13T16:55:13.948Z,19.40
2023-04-13T16:57:43.119Z,20.73
2023-04-13T17:00:12.936Z,21.30
2023-04-13T17:02:43.640Z,22.05
2023-04-13T17:05:13.442Z,19.63
2023-04-13T17:07:42.882Z,19.38
2023-04-13T17:10:14.305Z,19.65
2023-04-13T17:12:42.883Z,18.23
2023-04-13T17:15:12.042Z,17.83
2023-04-13T17:17:40.533Z,17.45
2023-04-13T17:20:11.411Z,19.00
2023-04-13T17:22:40.015Z,18.00
2023-04-13T17:25:10.035Z,19.45
2023-04-13T17:27:38.606Z,19.70
2023-04-13T17:30:08.530Z,18.65
2023-04-13T17:32:36.930Z,17.55
2023-04-13T17:35:07.118Z,19.35
2023-04-13T17:37:36.845Z,20.70
2023-04-13T17:40:06.262Z,20.63
2023-04-13T17:42:34.668Z,25.15
2023-04-13T17:45:03.347Z,29.17
2023-04-13T17:47:31.511Z,29.95
2023-04-13T17:50:00.143Z,27.98
2023-04-13T17:52:28.502Z,28.00
2023-04-13T17:54:58.713Z,26.25
2023-04-13T17:57:27.249Z,25.38
2023-04-13T17:59:55.776Z,25.83
2023-04-13T18:02:24.516Z,26.55
2023-04-13T18:04:53.077Z,26.45
2023-04-13T18:07:21.731Z,27.48
2023-04-13T18:09:50.239Z,27.50
2023-04-13T18:12:19.853Z,30.88
2023-04-13T18:14:48.499Z,31.30
2023-04-13T18:17:16.811Z,32.90
2023-04-13T18:19:45.195Z,35.78
2023-04-13T18:22:14.710Z,34.13
2023-04-13T18:24:43.667Z,34.55
2023-04-13T18:27:12.748Z,34.97
2023-04-13T18:29:43.064Z,33.83
2023-04-13T18:32:11.459Z,32.30
2023-04-13T18:34:42.194Z,32.42
2023-04-13T18:37:10.856Z,34.30
2023-04-13T18:39:39.673Z,33.95
2023-04-13T18:42:08.629Z,33.92
2023-04-13T18:44:37.332Z,32.05
2023-04-13T18:47:06.991Z,34.30
2023-04-13T18:49:35.520Z,35.05
2023-04-13T18:52:03.834Z,35.15
2023-04-13T18:54:33.231Z,33.33
2023-04-13T18:57:01.493Z,34.47
2023-04-13T18:59:30.266Z,31.85
2023-04-13T19:01:58.621Z,32.47
2023-04-13T19:04:28.791Z,34.65
2023-04-13T19:06:57.607Z,36.00
2023-04-13T19:09:26.096Z,36.22
2023-04-13T19:12:01.086Z,38.05
2023-04-13T19:14:29.772Z,36.97
2023-04-13T19:16:59.112Z,38.80
2023-04-13T19:19:29.380Z,40.70
2023-04-13T19:21:58.050Z,39.60
2023-04-13T19:24:27.198Z,41.33
2023-04-13T19:26:56.410Z,38.67
2023-04-13T19:29:26.883Z,38.70
2023-04-13T19:31:55.186Z,36.97
2023-04-13T19:34:23.904Z,35.33
2023-04-13T19:36:53.553Z,35.63
2023-04-13T19:39:22.205Z,33.50
2023-04-13T19:41:50.737Z,34.85
2023-04-13T19:44:19.557Z,33.65
2023-04-13T19:46:47.919Z,33.42
2023-04-13T19:49:16.788Z,34.00
2023-04-13T19:51:45.566Z,33.40
2023-04-13T19:54:15.540Z,32.28
2023-04-13T19:56:43.959Z,31.45
2023-04-13T19:59:12.438Z,32.95
2023-04-13T20:01:40.872Z,35.53
2023-04-13T20:04:09.780Z,34.33
2023-04-13T20:06:38.260Z,33.75
2023-04-13T20:09:10.768Z,32.50
2023-04-13T20:11:41.590Z,34.45
2023-04-13T20:14:11.284Z,33.13
2023-04-13T20:16:39.719Z,34.42
2023-04-13T20:19:09.329Z,32.72
2023-04-13T20:21:38.009Z,33.90
2023-04-13T20:24:06.857Z,32.63
2023-04-13T20:26:35.376Z,33.05
2023-04-13T20:29:06.155Z,34.33
2023-04-13T20:31:34.770Z,35.03
2023-04-13T20:34:04.270Z,33.85
2023-04-13T20:36:32.544Z,34.55
2023-04-13T20:39:01.057Z,37.72
2023-04-13T20:41:31.819Z,38.30
2023-04-13T20:44:01.117Z,39.13
2023-04-13T20:46:35.740Z,40.50
2023-04-13T20:49:05.082Z,39.33
2023-04-13T20:51:34.059Z,39.88
2023-04-13T20:54:05.382Z,40.72
2023-04-13T20:56:34.058Z,40.45
2023-04-13T20:59:03.263Z,43.00
2023-04-13T21:01:32.800Z,41.63
2023-04-13T21:04:01.829Z,43.70
2023-04-13T21:06:30.211Z,44.88
2023-04-13T21:08:59.012Z,44.03
2023-04-13T21:11:27.571Z,47.10
2023-04-13T21:13:56.217Z,45.78
2023-04-13T21:16:26.779Z,49.08
2023-04-13T21:18:57.038Z,45.53
2023-04-13T21:21:26.798Z,47.47
2023-04-13T21:23:55.688Z,47.22
2023-04-13T21:26:23.998Z,47.55
2023-04-13T21:28:53.990Z,47.88
2023-04-13T21:31:22.091Z,45.67
2023-04-13T21:33:50.506Z,48.47
2023-04-13T21:38:51.407Z,50.35
2023-04-13T21:41:20.690Z,51.28
2023-04-13T21:43:49.529Z,48.80
2023-04-13T21:46:17.905Z,50.72
2023-04-13T21:48:46.257Z,53.28
2023-04-13T21:51:14.429Z,53.72
2023-04-13T21:53:44.207Z,52.20
2023-04-13T21:56:12.473Z,55.25
2023-04-13T21:58:42.177Z,58.10
2023-04-13T22:01:10.904Z,58.70
2023-04-13T22:03:40.520Z,58.38
2023-04-13T22:06:10.824Z,57.42
2023-04-13T22:08:39.756Z,59.65
2023-04-13T22:11:09.361Z,63.47
2023-04-13T22:13:37.736Z,62.80
2023-04-13T22:16:06.499Z,62.83
2023-04-13T22:18:34.874Z,62.42
2023-04-13T22:21:02.995Z,63.28
2023-04-13T22:23:31.492Z,57.92
2023-04-13T22:26:01.382Z,60.75
2023-04-13T22:28:32.082Z,60.40
2023-04-13T22:31:06.836Z,60.20
2023-04-13T22:33:36.815Z,57.70
2023-04-13T22:36:05.586Z,58.58
2023-04-13T22:38:34.059Z,61.60
2023-04-13T22:41:07.505Z,59.97
2023-04-13T22:43:37.376Z,59.72
2023-04-13T22:46:05.735Z,57.65
2023-04-13T22:48:34.513Z,57.92
2023-04-13T22:51:03.505Z,59.00
2023-04-13T22:53:32.048Z,61.55
2023-04-13T22:56:00.576Z,62.45
2023-04-13T22:58:29.419Z,63.72
2023-04-13T23:00:59.983Z,61.58
2023-04-13T23:03:28.514Z,62.55
2023-04-13T23:05:56.722Z,63.08
2023-04-13T23:08:25.270Z,61.75
2023-04-13T23:10:53.413Z,66.07
2023-04-13T23:13:21.819Z,64.55
2023-04-13T23:15:50.085Z,66.03
2023-04-13T23:18:19.942Z,67.63
2023-04-13T23:20:48.156Z,67.75
2023-04-13T23:23:16.530Z,67.07
2023-04-13T23:25:44.602Z,70.00
2023-04-13T23:28:12.968Z,67.50
2023-04-13T23:30:41.235Z,70.18
2023-04-13T23:33:09.669Z,67.03
2023-04-13T23:35:39.194Z,65.22
2023-04-13T23:38:07.732Z,65.03
2023-04-13T23:40:36.087Z,65.30
2023-04-13T23:43:04.699Z,66.53
2023-04-13T23:45:33.310Z,64.22
2023-04-13T23:48:01.829Z,64.95
2023-04-13T23:50:29.960Z,66.10
2023-04-13T23:52:59.830Z,65.10
2023-04-13T23:55:28.857Z,64.07
2023-04-13T23:57:57.277Z,65.50
